Terminal Aerodrome Forecast
Issued by NWS

Home | Current Version | Previous Version | Text Only | Print | Product List | Glossary On
Versions: 1 2 3 4 5 6 7 8 9 10 11 12 13 14 15 16 17 18 19 20 21 22 23 24 25
000
FTAK31 PAJN 201700
TAFAPG
TAF
PAPG 201724Z 2018/2118 00000KT 5SM -SHRA SCT015 OVC025
     FM202300 09004KT 6SM -SHRA SCT025 OVC040
     FM210000 VRB05KT P6SM VCSH SCT025 OVC050
     FM210300 VRB03KT P6SM FEW005 SCT020 BKN070
     FM210700 06003KT 6SM BCFG SCT005 BKN070
     FM211100 VRB03KT 1SM BR BKN005 BKN070
     FM211400 VRB03KT 6SM -RA BR SCT005 SCT020 OVC060
      AMD LTD TO CLD VIS AND WIND 2106/2115=

USA.gov is the U.S. government's official web portal to all federal, state and local government web resources and services.